createdAt,value
2022-08-01T00:06:56.820Z,34.17
2022-08-01T00:17:05.354Z,31.00
2022-08-01T00:27:09.949Z,37.30
2022-08-01T00:37:16.085Z,31.58
2022-08-01T00:47:19.279Z,29.60
2022-08-01T00:58:01.449Z,33.25
2022-08-01T01:07:53.396Z,38.47
2022-08-01T01:18:03.245Z,43.00
2022-08-01T01:28:16.135Z,41.28
2022-08-01T01:38:23.830Z,35.35
2022-08-01T01:48:28.008Z,32.42
2022-08-01T01:58:35.537Z,25.40
2022-08-01T02:08:41.463Z,29.85
2022-08-01T02:18:45.818Z,28.13
2022-08-01T02:38:57.913Z,30.80
2022-08-01T02:49:04.741Z,30.67
2022-08-01T02:59:13.666Z,30.30
2022-08-01T03:09:18.512Z,31.55
2022-08-01T03:19:26.275Z,38.80
2022-08-01T03:29:31.334Z,29.48
2022-08-01T03:39:49.732Z,28.80
2022-08-01T03:49:54.546Z,35.17
2022-08-01T04:00:00.536Z,36.28
2022-08-01T04:10:03.598Z,35.75
2022-08-01T04:20:08.971Z,34.85
2022-08-01T04:30:18.146Z,36.88
2022-08-01T04:40:27.260Z,42.85
2022-08-01T04:50:30.468Z,35.15
2022-08-01T05:00:35.350Z,34.67
2022-08-01T05:20:42.820Z,30.98
2022-08-01T05:30:45.826Z,27.38
2022-08-01T05:40:50.177Z,22.67
2022-08-01T05:50:58.064Z,18.13
2022-08-01T06:01:03.044Z,17.58
2022-08-01T06:11:06.101Z,16.15
2022-08-01T06:21:10.578Z,13.35
2022-08-01T06:31:15.789Z,10.65
2022-08-01T06:41:20.157Z,12.20
2022-08-01T06:51:23.189Z,9.35
2022-08-01T07:21:39.611Z,6.38
2022-08-01T07:31:44.221Z,5.28
2022-08-01T07:41:53.883Z,3.13
2022-08-01T07:52:11.114Z,4.65
2022-08-01T08:02:15.700Z,3.40
2022-08-01T08:12:18.748Z,2.78
2022-08-01T08:22:33.466Z,3.03
2022-08-01T08:32:36.834Z,2.35
2022-08-01T08:42:42.941Z,1.80
2022-08-01T08:52:49.093Z,4.38
2022-08-01T09:02:56.612Z,1.85
2022-08-01T09:13:08.147Z,3.65
2022-08-01T09:23:33.482Z,1.00
2022-08-01T09:33:55.029Z,1.02
2022-08-01T09:44:00.228Z,1.00
2022-08-01T09:54:06.074Z,1.25
2022-08-01T10:04:12.955Z,2.38
2022-08-01T10:14:18.044Z,1.48
2022-08-01T10:24:24.085Z,4.82
2022-08-01T10:34:27.845Z,1.67
2022-08-01T10:44:35.495Z,3.95
2022-08-01T10:54:52.874Z,4.05
2022-08-01T11:05:00.782Z,4.53
2022-08-01T11:15:31.154Z,3.47
2022-08-01T11:26:29.577Z,1.17
2022-08-01T11:36:58.408Z,1.70
2022-08-01T11:47:08.795Z,3.45
2022-08-01T11:57:36.150Z,3.15
2022-08-01T12:07:40.363Z,2.17
2022-08-01T12:17:58.460Z,3.38
2022-08-01T12:28:03.524Z,2.42
2022-08-01T12:38:15.526Z,2.30
2022-08-01T12:48:20.680Z,2.38
2022-08-01T12:58:25.279Z,2.85
2022-08-01T13:08:34.219Z,5.72
2022-08-01T13:18:39.115Z,7.88
2022-08-01T13:28:45.233Z,6.35
2022-08-01T13:39:25.917Z,8.95
2022-08-01T13:49:35.559Z,5.30
2022-08-01T13:59:42.860Z,8.30
2022-08-01T14:10:05.146Z,5.90
2022-08-01T14:20:11.899Z,6.90
2022-08-01T14:30:24.153Z,9.35
2022-08-01T14:40:28.928Z,5.43
2022-08-01T14:50:35.651Z,7.90
2022-08-01T15:00:45.375Z,6.47
2022-08-01T15:10:54.469Z,5.75
2022-08-01T15:21:01.768Z,7.90
2022-08-01T15:31:13.771Z,8.77
2022-08-01T15:41:18.603Z,7.72
2022-08-01T15:51:25.555Z,5.95
2022-08-01T16:01:36.288Z,6.55
2022-08-01T16:11:42.986Z,8.65
2022-08-01T16:21:55.903Z,8.45
2022-08-01T16:32:12.487Z,7.97
2022-08-01T16:42:31.308Z,4.78
2022-08-01T17:02:46.901Z,6.78
2022-08-01T17:12:56.281Z,9.15
2022-08-01T17:23:06.932Z,5.10
2022-08-01T17:33:10.455Z,3.38
2022-08-01T17:43:21.231Z,5.93
2022-08-01T17:53:29.176Z,3.78
2022-08-01T18:03:41.424Z,4.35
2022-08-01T18:13:45.185Z,4.88
2022-08-01T18:23:53.334Z,6.47
2022-08-01T18:34:02.554Z,7.03
2022-08-01T18:44:10.098Z,5.32
2022-08-01T18:54:16.685Z,5.78
2022-08-01T19:04:28.371Z,6.22
2022-08-01T19:14:32.788Z,5.65
2022-08-01T19:24:37.235Z,3.30
2022-08-01T19:34:54.669Z,5.93
2022-08-01T19:44:59.506Z,12.38
2022-08-01T19:55:04.215Z,3.90
2022-08-01T20:05:13.825Z,3.20
2022-08-01T20:15:17.465Z,3.50
2022-08-01T20:25:23.674Z,7.10
2022-08-01T20:35:51.837Z,4.15
2022-08-01T20:45:52.782Z,6.32
2022-08-01T21:06:13.259Z,4.47
2022-08-01T21:16:24.441Z,7.25
2022-08-01T21:26:30.866Z,16.05
2022-08-01T21:36:33.882Z,9.13
2022-08-01T21:46:38.690Z,13.77
2022-08-01T21:56:50.014Z,5.18
2022-08-01T22:06:55.527Z,14.73
2022-08-01T22:16:59.874Z,10.45
2022-08-01T22:27:07.176Z,6.75
2022-08-01T22:37:13.418Z,8.07
2022-08-01T22:47:27.687Z,10.55
2022-08-01T22:57:32.928Z,7.13
2022-08-01T23:07:43.777Z,6.15
2022-08-01T23:17:48.290Z,8.23
2022-08-01T23:28:05.256Z,5.82
2022-08-01T23:38:11.023Z,4.15
2022-08-01T23:48:15.371Z,7.28
2022-08-01T23:58:18.336Z,7.13
